Airfield :
LOGIN :

Register | Disclaimer

   EN    FR    IT 

 










Legend :    VFR   Marginal VFR   IFR   Intensive IFR   Very Intensive IFR
Visi :
Ceiling :
>= 8 km
>= 3000ft
5 to 8 km
1000 to 3000 ft
1500m to 5 km
500 to 1000 ft
800 to 1500m
200 to 500 ft
< 800m
< 200 ft
Symbols :   Thunderstorms  Fog  Heavy snow  Heavy precipitations  Wind > 20 kt
SIGMETs :     Misc.  Thunderstorms  Icing  Turbulence  Mountain Waves  Volcanic Ashes






- Airport Elevation : 306 ft
- IATA code : EMA


EGNX - Nottingham East Midlands

CURRENT METAR :
  • 191550Z 19015KT 9000 -RA SCT012 BKN036 06/05 Q1013

EXPIRED METARs :
  • 191520Z 20015KT 8000 -RA SCT007 BKN015 06/05 Q1014
  • 191450Z 20015KT 9999 -RA SCT009 BKN013 06/05 Q1014
  • 191420Z 20014KT 9000 -RA SCT009 BKN047 06/05 Q1015
  • 191350Z 20013KT 9000 -RA FEW010 BKN036 06/04 Q1015
  • 191320Z 20013KT 8000 -RA SCT023 BKN040 05/03 Q1016

TAF TAF EGNX
Valid from the 19 at 12:00 until the 20 at 12:00 UTC


191106Z 1912/2012 22014KT 9999 SCT020
TEMPO 1912/1918 6000 RA BKN008
PROB30
TEMPO 1912/1915 4000 RADZ
PROB40
TEMPO 1918/2006 23018G28KT 6000 -DZ
TEMPO 2006/2011 23018G28KT 4000 RADZ BKN012
PROB40
TEMPO 2009/2011 26025G40KT 1200 +RA BKN008
BECMG 2011/2012 28010KT
ATIS : +44 1332 852 852 (ext 3201)



MET'MAP, your aeronautical weather chart ! - Copyright ORBIFLY December 2007 - Disclaimer

ORBIFLY MET'MAP TEAM :

Programming & Development : Alexandra Zaïnal
Concept & original design : Baudouin d'Aumeries
Assistance for programming : Marc-Olivier Méhu
Technical & hardware support : Manuel Goepfert

Contact : metmap@orbifly.com




SOURCES & CREDITS :

   NOAA